sensor_id;sensor_type;location;lat;lon;timestamp;P1;durP1;ratioP1;P2;durP2;ratioP2
2874;SDS011;1445;52.600;13.328;2023-04-02T00:02:34;7.22;;;4.95;;
2874;SDS011;1445;52.600;13.328;2023-04-02T00:07:55;8.50;;;5.10;;
2874;SDS011;1445;52.600;13.328;2023-04-02T00:13:16;7.63;;;5.03;;
2874;SDS011;1445;52.600;13.328;2023-04-02T00:15:48;8.90;;;4.95;;
2874;SDS011;1445;52.600;13.328;2023-04-02T00:18:20;7.15;;;4.65;;
2874;SDS011;1445;52.600;13.328;2023-04-02T00:20:59;5.53;;;4.43;;
2874;SDS011;1445;52.600;13.328;2023-04-02T00:23:35;6.13;;;4.97;;
2874;SDS011;1445;52.600;13.328;2023-04-02T00:26:05;6.50;;;4.70;;
2874;SDS011;1445;52.600;13.328;2023-04-02T00:28:43;6.13;;;4.60;;
2874;SDS011;1445;52.600;13.328;2023-04-02T00:31:09;8.20;;;4.43;;
2874;SDS011;1445;52.600;13.328;2023-04-02T00:33:35;6.07;;;4.07;;
2874;SDS011;1445;52.600;13.328;2023-04-02T00:36:00;7.75;;;4.00;;
2874;SDS011;1445;52.600;13.328;2023-04-02T00:38:32;6.40;;;4.22;;
2874;SDS011;1445;52.600;13.328;2023-04-02T00:41:01;8.63;;;4.03;;
2874;SDS011;1445;52.600;13.328;2023-04-02T00:43:29;7.13;;;4.18;;
2874;SDS011;1445;52.600;13.328;2023-04-02T00:46:01;6.28;;;3.92;;
2874;SDS011;1445;52.600;13.328;2023-04-02T00:48:55;6.53;;;4.13;;
2874;SDS011;1445;52.600;13.328;2023-04-02T00:54:00;6.80;;;4.30;;
2874;SDS011;1445;52.600;13.328;2023-04-02T00:56:31;5.82;;;3.85;;
2874;SDS011;1445;52.600;13.328;2023-04-02T00:59:01;9.02;;;4.78;;
2874;SDS011;1445;52.600;13.328;2023-04-02T01:01:36;7.90;;;3.97;;
2874;SDS011;1445;52.600;13.328;2023-04-02T01:04:23;6.03;;;3.22;;
2874;SDS011;1445;52.600;13.328;2023-04-02T01:06:51;6.80;;;4.32;;
2874;SDS011;1445;52.600;13.328;2023-04-02T01:09:27;6.47;;;3.47;;
2874;SDS011;1445;52.600;13.328;2023-04-02T01:12:02;6.35;;;3.40;;
2874;SDS011;1445;52.600;13.328;2023-04-02T01:17:28;6.35;;;3.67;;
2874;SDS011;1445;52.600;13.328;2023-04-02T01:22:50;6.90;;;3.80;;
2874;SDS011;1445;52.600;13.328;2023-04-02T01:25:34;6.22;;;3.78;;
2874;SDS011;1445;52.600;13.328;2023-04-02T01:28:12;6.15;;;3.58;;
2874;SDS011;1445;52.600;13.328;2023-04-02T01:30:50;5.75;;;4.00;;
2874;SDS011;1445;52.600;13.328;2023-04-02T01:33:20;5.38;;;3.85;;
2874;SDS011;1445;52.600;13.328;2023-04-02T01:35:49;4.75;;;3.72;;
2874;SDS011;1445;52.600;13.328;2023-04-02T01:38:32;8.13;;;4.20;;
2874;SDS011;1445;52.600;13.328;2023-04-02T01:41:07;5.05;;;4.00;;
2874;SDS011;1445;52.600;13.328;2023-04-02T01:46:29;5.32;;;3.72;;
2874;SDS011;1445;52.600;13.328;2023-04-02T01:48:56;7.55;;;3.60;;
2874;SDS011;1445;52.600;13.328;2023-04-02T01:51:32;7.15;;;3.38;;
2874;SDS011;1445;52.600;13.328;2023-04-02T01:54:00;5.70;;;3.47;;
2874;SDS011;1445;52.600;13.328;2023-04-02T01:56:28;4.72;;;3.42;;
2874;SDS011;1445;52.600;13.328;2023-04-02T01:58:57;6.55;;;3.50;;
2874;SDS011;1445;52.600;13.328;2023-04-02T02:01:25;6.70;;;3.70;;
2874;SDS011;1445;52.600;13.328;2023-04-02T02:03:56;5.30;;;3.42;;
2874;SDS011;1445;52.600;13.328;2023-04-02T02:06:22;6.28;;;3.53;;
2874;SDS011;1445;52.600;13.328;2023-04-02T02:08:49;5.03;;;3.30;;
2874;SDS011;1445;52.600;13.328;2023-04-02T02:11:20;4.28;;;3.47;;
2874;SDS011;1445;52.600;13.328;2023-04-02T02:13:58;5.93;;;3.38;;
2874;SDS011;1445;52.600;13.328;2023-04-02T02:16:26;8.13;;;3.42;;
2874;SDS011;1445;52.600;13.328;2023-04-02T02:18:59;5.38;;;2.97;;
2874;SDS011;1445;52.600;13.328;2023-04-02T02:24:01;5.45;;;2.97;;
2874;SDS011;1445;52.600;13.328;2023-04-02T02:26:28;4.95;;;3.10;;
2874;SDS011;1445;52.600;13.328;2023-04-02T02:28:58;5.60;;;2.70;;
2874;SDS011;1445;52.600;13.328;2023-04-02T02:31:28;5.57;;;3.00;;
2874;SDS011;1445;52.600;13.328;2023-04-02T02:34:07;4.97;;;3.28;;
2874;SDS011;1445;52.600;13.328;2023-04-02T02:36:49;4.43;;;3.13;;
2874;SDS011;1445;52.600;13.328;2023-04-02T02:39:28;5.68;;;2.92;;
2874;SDS011;1445;52.600;13.328;2023-04-02T02:42:01;4.53;;;2.80;;
2874;SDS011;1445;52.600;13.328;2023-04-02T02:44:30;5.25;;;2.70;;
2874;SDS011;1445;52.600;13.328;2023-04-02T02:47:00;7.30;;;3.67;;
2874;SDS011;1445;52.600;13.328;2023-04-02T02:49:31;6.97;;;4.97;;
2874;SDS011;1445;52.600;13.328;2023-04-02T02:52:05;6.47;;;4.30;;
2874;SDS011;1445;52.600;13.328;2023-04-02T02:54:50;7.43;;;4.07;;
2874;SDS011;1445;52.600;13.328;2023-04-02T02:57:24;6.32;;;3.97;;
2874;SDS011;1445;52.600;13.328;2023-04-02T02:59:54;5.80;;;3.33;;
2874;SDS011;1445;52.600;13.328;2023-04-02T03:02:22;9.00;;;4.78;;
2874;SDS011;1445;52.600;13.328;2023-04-02T03:04:50;9.68;;;5.68;;
2874;SDS011;1445;52.600;13.328;2023-04-02T03:07:18;4.95;;;3.47;;
2874;SDS011;1445;52.600;13.328;2023-04-02T03:09:51;7.70;;;5.65;;
2874;SDS011;1445;52.600;13.328;2023-04-02T03:12:27;5.00;;;3.10;;
2874;SDS011;1445;52.600;13.328;2023-04-02T03:14:59;5.85;;;3.45;;
2874;SDS011;1445;52.600;13.328;2023-04-02T03:17:31;6.20;;;3.40;;
2874;SDS011;1445;52.600;13.328;2023-04-02T03:20:03;4.95;;;3.45;;
2874;SDS011;1445;52.600;13.328;2023-04-02T03:22:39;6.30;;;3.30;;
2874;SDS011;1445;52.600;13.328;2023-04-02T03:27:46;5.57;;;2.90;;
2874;SDS011;1445;52.600;13.328;2023-04-02T03:33:04;7.93;;;3.17;;
2874;SDS011;1445;52.600;13.328;2023-04-02T03:35:38;4.10;;;3.00;;
2874;SDS011;1445;52.600;13.328;2023-04-02T03:38:12;3.40;;;2.30;;
2874;SDS011;1445;52.600;13.328;2023-04-02T03:40:48;4.57;;;2.45;;
2874;SDS011;1445;52.600;13.328;2023-04-02T03:43:24;4.68;;;2.92;;
2874;SDS011;1445;52.600;13.328;2023-04-02T03:46:05;3.95;;;2.10;;
2874;SDS011;1445;52.600;13.328;2023-04-02T03:48:43;4.63;;;2.47;;
2874;SDS011;1445;52.600;13.328;2023-04-02T03:51:21;5.20;;;2.38;;
2874;SDS011;1445;52.600;13.328;2023-04-02T03:53:51;5.90;;;2.75;;
2874;SDS011;1445;52.600;13.328;2023-04-02T03:56:36;5.03;;;2.33;;
2874;SDS011;1445;52.600;13.328;2023-04-02T03:59:14;4.75;;;2.88;;
2874;SDS011;1445;52.600;13.328;2023-04-02T04:01:48;7.22;;;2.47;;
2874;SDS011;1445;52.600;13.328;2023-04-02T04:04:21;4.25;;;2.53;;
2874;SDS011;1445;52.600;13.328;2023-04-02T04:06:50;5.72;;;2.70;;
2874;SDS011;1445;52.600;13.328;2023-04-02T04:09:32;4.25;;;2.50;;
2874;SDS011;1445;52.600;13.328;2023-04-02T04:12:46;5.90;;;2.28;;
2874;SDS011;1445;52.600;13.328;2023-04-02T04:14:51;3.85;;;2.40;;
2874;SDS011;1445;52.600;13.328;2023-04-02T04:17:53;5.38;;;2.42;;
2874;SDS011;1445;52.600;13.328;2023-04-02T04:20:49;4.75;;;2.30;;
2874;SDS011;1445;52.600;13.328;2023-04-02T04:23:27;5.85;;;2.92;;
2874;SDS011;1445;52.600;13.328;2023-04-02T04:25:59;3.83;;;1.80;;
2874;SDS011;1445;52.600;13.328;2023-04-02T04:31:46;4.03;;;2.10;;
2874;SDS011;1445;52.600;13.328;2023-04-02T04:34:57;3.92;;;2.20;;
2874;SDS011;1445;52.600;13.328;2023-04-02T04:37:16;4.20;;;2.05;;
2874;SDS011;1445;52.600;13.328;2023-04-02T04:39:55;5.25;;;2.08;;
2874;SDS011;1445;52.600;13.328;2023-04-02T04:42:26;4.72;;;2.10;;
2874;SDS011;1445;52.600;13.328;2023-04-02T04:45:05;6.93;;;2.42;;
2874;SDS011;1445;52.600;13.328;2023-04-02T04:47:56;3.55;;;2.13;;
2874;SDS011;1445;52.600;13.328;2023-04-02T04:53:19;6.65;;;2.08;;
2874;SDS011;1445;52.600;13.328;2023-04-02T04:55:47;5.13;;;2.47;;
2874;SDS011;1445;52.600;13.328;2023-04-02T05:01:54;4.07;;;2.00;;
2874;SDS011;1445;52.600;13.328;2023-04-02T05:09:33;4.00;;;1.52;;
2874;SDS011;1445;52.600;13.328;2023-04-02T05:25:35;4.28;;;1.95;;
2874;SDS011;1445;52.600;13.328;2023-04-02T05:32:53;3.90;;;2.40;;
2874;SDS011;1445;52.600;13.328;2023-04-02T05:35:31;4.65;;;2.03;;
2874;SDS011;1445;52.600;13.328;2023-04-02T05:38:00;4.65;;;1.70;;
2874;SDS011;1445;52.600;13.328;2023-04-02T05:40:28;2.25;;;1.63;;
2874;SDS011;1445;52.600;13.328;2023-04-02T05:42:58;3.35;;;1.38;;
2874;SDS011;1445;52.600;13.328;2023-04-02T05:45:31;4.10;;;2.13;;
2874;SDS011;1445;52.600;13.328;2023-04-02T05:48:03;2.78;;;1.48;;
2874;SDS011;1445;52.600;13.328;2023-04-02T05:50:40;2.80;;;1.30;;
2874;SDS011;1445;52.600;13.328;2023-04-02T05:53:11;5.05;;;2.30;;
2874;SDS011;1445;52.600;13.328;2023-04-02T05:55:56;3.97;;;1.48;;
2874;SDS011;1445;52.600;13.328;2023-04-02T06:04:01;2.92;;;1.40;;
2874;SDS011;1445;52.600;13.328;2023-04-02T06:06:47;2.43;;;1.30;;
2874;SDS011;1445;52.600;13.328;2023-04-02T06:12:10;2.78;;;1.33;;
2874;SDS011;1445;52.600;13.328;2023-04-02T06:14:58;2.38;;;1.20;;
2874;SDS011;1445;52.600;13.328;2023-04-02T06:17:23;2.85;;;1.20;;
2874;SDS011;1445;52.600;13.328;2023-04-02T06:19:49;3.10;;;1.52;;
2874;SDS011;1445;52.600;13.328;2023-04-02T06:24:57;4.07;;;1.60;;
2874;SDS011;1445;52.600;13.328;2023-04-02T06:27:26;2.40;;;1.40;;
2874;SDS011;1445;52.600;13.328;2023-04-02T06:29:54;2.97;;;1.85;;
2874;SDS011;1445;52.600;13.328;2023-04-02T06:32:25;2.05;;;1.30;;
2874;SDS011;1445;52.600;13.328;2023-04-02T06:34:51;2.35;;;1.27;;
2874;SDS011;1445;52.600;13.328;2023-04-02T06:37:36;2.60;;;1.50;;
2874;SDS011;1445;52.600;13.328;2023-04-02T06:40:04;3.90;;;1.63;;
2874;SDS011;1445;52.600;13.328;2023-04-02T06:42:41;6.35;;;2.58;;
2874;SDS011;1445;52.600;13.328;2023-04-02T06:45:13;5.20;;;1.58;;
2874;SDS011;1445;52.600;13.328;2023-04-02T06:47:48;2.67;;;1.30;;
2874;SDS011;1445;52.600;13.328;2023-04-02T06:50:26;3.70;;;1.10;;
2874;SDS011;1445;52.600;13.328;2023-04-02T06:53:08;2.97;;;1.48;;
2874;SDS011;1445;52.600;13.328;2023-04-02T06:56:05;3.28;;;1.60;;
2874;SDS011;1445;52.600;13.328;2023-04-02T06:58:32;3.33;;;1.20;;
2874;SDS011;1445;52.600;13.328;2023-04-02T07:00:57;5.18;;;1.65;;
2874;SDS011;1445;52.600;13.328;2023-04-02T07:03:24;3.38;;;1.20;;
2874;SDS011;1445;52.600;13.328;2023-04-02T07:05:54;6.10;;;2.10;;
2874;SDS011;1445;52.600;13.328;2023-04-02T07:08:20;2.67;;;1.38;;
2874;SDS011;1445;52.600;13.328;2023-04-02T07:10:46;2.83;;;1.27;;
2874;SDS011;1445;52.600;13.328;2023-04-02T07:13:16;2.95;;;1.30;;
2874;SDS011;1445;52.600;13.328;2023-04-02T07:15:44;4.82;;;1.38;;
2874;SDS011;1445;52.600;13.328;2023-04-02T07:20:54;3.70;;;1.15;;
2874;SDS011;1445;52.600;13.328;2023-04-02T07:23:20;3.55;;;1.20;;
2874;SDS011;1445;52.600;13.328;2023-04-02T07:25:49;5.22;;;1.58;;
2874;SDS011;1445;52.600;13.328;2023-04-02T07:28:17;4.68;;;1.50;;
2874;SDS011;1445;52.600;13.328;2023-04-02T07:30:43;2.45;;;1.67;;
2874;SDS011;1445;52.600;13.328;2023-04-02T07:33:11;2.63;;;1.42;;
2874;SDS011;1445;52.600;13.328;2023-04-02T07:35:41;2.97;;;1.40;;
2874;SDS011;1445;52.600;13.328;2023-04-02T07:38:07;3.25;;;1.83;;
2874;SDS011;1445;52.600;13.328;2023-04-02T07:40:33;2.53;;;1.50;;
2874;SDS011;1445;52.600;13.328;2023-04-02T07:42:58;3.92;;;1.60;;
2874;SDS011;1445;52.600;13.328;2023-04-02T07:45:24;3.97;;;1.48;;
2874;SDS011;1445;52.600;13.328;2023-04-02T07:47:50;1.83;;;1.25;;
2874;SDS011;1445;52.600;13.328;2023-04-02T07:50:16;1.50;;;1.02;;
2874;SDS011;1445;52.600;13.328;2023-04-02T07:52:42;3.08;;;1.30;;
2874;SDS011;1445;52.600;13.328;2023-04-02T07:55:09;2.10;;;1.30;;
2874;SDS011;1445;52.600;13.328;2023-04-02T07:57:40;3.35;;;1.17;;
2874;SDS011;1445;52.600;13.328;2023-04-02T08:00:15;1.67;;;1.20;;
2874;SDS011;1445;52.600;13.328;2023-04-02T08:02:41;3.65;;;2.00;;
2874;SDS011;1445;52.600;13.328;2023-04-02T08:05:07;2.63;;;1.40;;
2874;SDS011;1445;52.600;13.328;2023-04-02T08:07:33;3.42;;;1.50;;
2874;SDS011;1445;52.600;13.328;2023-04-02T08:09:59;2.35;;;1.50;;
2874;SDS011;1445;52.600;13.328;2023-04-02T08:12:25;4.18;;;1.60;;
2874;SDS011;1445;52.600;13.328;2023-04-02T08:14:50;2.67;;;1.95;;
2874;SDS011;1445;52.600;13.328;2023-04-02T08:17:16;3.20;;;1.50;;
2874;SDS011;1445;52.600;13.328;2023-04-02T08:19:41;2.85;;;1.20;;
2874;SDS011;1445;52.600;13.328;2023-04-02T08:22:08;3.35;;;1.40;;
2874;SDS011;1445;52.600;13.328;2023-04-02T08:24:34;4.03;;;1.40;;
2874;SDS011;1445;52.600;13.328;2023-04-02T08:26:59;3.47;;;1.58;;
2874;SDS011;1445;52.600;13.328;2023-04-02T08:29:26;3.03;;;1.38;;
2874;SDS011;1445;52.600;13.328;2023-04-02T08:31:56;3.83;;;1.50;;
2874;SDS011;1445;52.600;13.328;2023-04-02T08:34:22;6.18;;;1.95;;
2874;SDS011;1445;52.600;13.328;2023-04-02T08:36:47;3.60;;;1.15;;
2874;SDS011;1445;52.600;13.328;2023-04-02T08:39:13;1.60;;;0.90;;
2874;SDS011;1445;52.600;13.328;2023-04-02T08:42:21;3.30;;;1.10;;
2874;SDS011;1445;52.600;13.328;2023-04-02T08:44:51;3.22;;;1.30;;
2874;SDS011;1445;52.600;13.328;2023-04-02T08:47:30;2.13;;;1.10;;
2874;SDS011;1445;52.600;13.328;2023-04-02T08:50:08;1.85;;;1.38;;
2874;SDS011;1445;52.600;13.328;2023-04-02T08:52:41;3.45;;;1.30;;
2874;SDS011;1445;52.600;13.328;2023-04-02T09:00:39;2.15;;;1.10;;
2874;SDS011;1445;52.600;13.328;2023-04-02T09:05:53;3.00;;;1.20;;
2874;SDS011;1445;52.600;13.328;2023-04-02T09:08:21;3.75;;;1.30;;
2874;SDS011;1445;52.600;13.328;2023-04-02T09:11:00;3.45;;;1.20;;
2874;SDS011;1445;52.600;13.328;2023-04-02T09:13:27;3.28;;;1.13;;
2874;SDS011;1445;52.600;13.328;2023-04-02T09:16:00;2.47;;;1.00;;
2874;SDS011;1445;52.600;13.328;2023-04-02T09:18:35;2.65;;;1.20;;
2874;SDS011;1445;52.600;13.328;2023-04-02T09:21:08;3.10;;;0.98;;
2874;SDS011;1445;52.600;13.328;2023-04-02T09:23:42;2.53;;;1.10;;
2874;SDS011;1445;52.600;13.328;2023-04-02T09:26:27;4.22;;;1.13;;
2874;SDS011;1445;52.600;13.328;2023-04-02T09:28:58;2.90;;;0.98;;
2874;SDS011;1445;52.600;13.328;2023-04-02T09:31:50;3.13;;;1.08;;
2874;SDS011;1445;52.600;13.328;2023-04-02T09:34:30;2.10;;;0.95;;
2874;SDS011;1445;52.600;13.328;2023-04-02T09:37:12;2.53;;;0.90;;
2874;SDS011;1445;52.600;13.328;2023-04-02T09:39:40;2.22;;;0.93;;
2874;SDS011;1445;52.600;13.328;2023-04-02T09:42:06;3.40;;;1.00;;
2874;SDS011;1445;52.600;13.328;2023-04-02T09:44:32;4.63;;;1.38;;
2874;SDS011;1445;52.600;13.328;2023-04-02T09:47:03;3.03;;;1.05;;
2874;SDS011;1445;52.600;13.328;2023-04-02T09:49:34;2.55;;;1.02;;
2874;SDS011;1445;52.600;13.328;2023-04-02T09:52:05;1.95;;;1.08;;
2874;SDS011;1445;52.600;13.328;2023-04-02T09:57:40;3.00;;;0.90;;
2874;SDS011;1445;52.600;13.328;2023-04-02T10:02:36;3.13;;;1.10;;
2874;SDS011;1445;52.600;13.328;2023-04-02T10:05:02;3.85;;;1.50;;
2874;SDS011;1445;52.600;13.328;2023-04-02T10:07:52;4.43;;;1.40;;
2874;SDS011;1445;52.600;13.328;2023-04-02T10:10:30;4.18;;;1.08;;
2874;SDS011;1445;52.600;13.328;2023-04-02T10:15:43;2.55;;;1.27;;
2874;SDS011;1445;52.600;13.328;2023-04-02T10:18:21;2.88;;;1.25;;
2874;SDS011;1445;52.600;13.328;2023-04-02T10:20:57;3.53;;;1.27;;
2874;SDS011;1445;52.600;13.328;2023-04-02T10:23:26;4.32;;;1.70;;
2874;SDS011;1445;52.600;13.328;2023-04-02T10:33:41;2.30;;;0.90;;
2874;SDS011;1445;52.600;13.328;2023-04-02T10:38:53;2.75;;;1.35;;
2874;SDS011;1445;52.600;13.328;2023-04-02T10:44:55;3.70;;;1.20;;
2874;SDS011;1445;52.600;13.328;2023-04-02T10:51:00;2.20;;;0.93;;
2874;SDS011;1445;52.600;13.328;2023-04-02T10:55:52;5.35;;;1.33;;
2874;SDS011;1445;52.600;13.328;2023-04-02T10:58:22;2.88;;;1.25;;
2874;SDS011;1445;52.600;13.328;2023-04-02T11:00:52;5.80;;;2.03;;
2874;SDS011;1445;52.600;13.328;2023-04-02T11:06:01;2.15;;;1.10;;
2874;SDS011;1445;52.600;13.328;2023-04-02T11:08:41;6.15;;;1.45;;
2874;SDS011;1445;52.600;13.328;2023-04-02T11:16:27;3.72;;;1.27;;
2874;SDS011;1445;52.600;13.328;2023-04-02T11:24:22;2.28;;;1.05;;
2874;SDS011;1445;52.600;13.328;2023-04-02T11:26:53;3.85;;;1.17;;
2874;SDS011;1445;52.600;13.328;2023-04-02T11:42:38;2.75;;;1.50;;
2874;SDS011;1445;52.600;13.328;2023-04-02T11:50:46;4.18;;;1.13;;
2874;SDS011;1445;52.600;13.328;2023-04-02T11:55:37;4.05;;;1.42;;
2874;SDS011;1445;52.600;13.328;2023-04-02T12:09:41;2.72;;;1.17;;
2874;SDS011;1445;52.600;13.328;2023-04-02T12:12:16;2.65;;;1.20;;
2874;SDS011;1445;52.600;13.328;2023-04-02T12:14:50;5.03;;;1.35;;
2874;SDS011;1445;52.600;13.328;2023-04-02T12:19:54;2.67;;;1.08;;
2874;SDS011;1445;52.600;13.328;2023-04-02T12:22:32;3.47;;;1.27;;
2874;SDS011;1445;52.600;13.328;2023-04-02T12:25:50;3.25;;;1.30;;
2874;SDS011;1445;52.600;13.328;2023-04-02T12:28:02;3.40;;;1.23;;
2874;SDS011;1445;52.600;13.328;2023-04-02T12:30:31;5.63;;;1.50;;
2874;SDS011;1445;52.600;13.328;2023-04-02T12:33:12;2.05;;;0.82;;
2874;SDS011;1445;52.600;13.328;2023-04-02T12:35:42;3.80;;;0.95;;
2874;SDS011;1445;52.600;13.328;2023-04-02T12:38:19;2.60;;;0.90;;
2874;SDS011;1445;52.600;13.328;2023-04-02T12:40:57;5.65;;;1.70;;
2874;SDS011;1445;52.600;13.328;2023-04-02T12:43:29;3.75;;;1.30;;
2874;SDS011;1445;52.600;13.328;2023-04-02T12:46:05;2.83;;;1.27;;
2874;SDS011;1445;52.600;13.328;2023-04-02T12:48:32;3.53;;;1.20;;
2874;SDS011;1445;52.600;13.328;2023-04-02T12:50:59;2.80;;;0.90;;
2874;SDS011;1445;52.600;13.328;2023-04-02T12:53:28;2.20;;;1.23;;
2874;SDS011;1445;52.600;13.328;2023-04-02T12:55:58;4.00;;;1.40;;
2874;SDS011;1445;52.600;13.328;2023-04-02T12:58:50;3.10;;;1.00;;
2874;SDS011;1445;52.600;13.328;2023-04-02T13:01:18;4.55;;;1.52;;
2874;SDS011;1445;52.600;13.328;2023-04-02T13:06:27;2.20;;;1.00;;
2874;SDS011;1445;52.600;13.328;2023-04-02T13:08:54;3.38;;;1.20;;
2874;SDS011;1445;52.600;13.328;2023-04-02T13:11:20;2.10;;;0.90;;
2874;SDS011;1445;52.600;13.328;2023-04-02T13:13:47;2.45;;;1.13;;
2874;SDS011;1445;52.600;13.328;2023-04-02T13:18:42;3.92;;;1.23;;
2874;SDS011;1445;52.600;13.328;2023-04-02T13:23:40;2.25;;;1.00;;
2874;SDS011;1445;52.600;13.328;2023-04-02T13:26:20;2.35;;;1.00;;
2874;SDS011;1445;52.600;13.328;2023-04-02T13:31:41;3.15;;;0.95;;
2874;SDS011;1445;52.600;13.328;2023-04-02T13:34:07;3.13;;;1.10;;
2874;SDS011;1445;52.600;13.328;2023-04-02T13:36:32;2.92;;;0.90;;
2874;SDS011;1445;52.600;13.328;2023-04-02T13:38:57;2.47;;;0.77;;
2874;SDS011;1445;52.600;13.328;2023-04-02T13:41:24;1.85;;;0.90;;
2874;SDS011;1445;52.600;13.328;2023-04-02T13:43:52;2.53;;;0.70;;
2874;SDS011;1445;52.600;13.328;2023-04-02T13:46:26;2.42;;;0.90;;
2874;SDS011;1445;52.600;13.328;2023-04-02T13:48:57;3.75;;;1.13;;
2874;SDS011;1445;52.600;13.328;2023-04-02T13:51:33;3.42;;;0.88;;
2874;SDS011;1445;52.600;13.328;2023-04-02T13:53:58;4.13;;;1.02;;
2874;SDS011;1445;52.600;13.328;2023-04-02T13:56:24;1.77;;;0.70;;
2874;SDS011;1445;52.600;13.328;2023-04-02T13:58:50;2.75;;;0.98;;
2874;SDS011;1445;52.600;13.328;2023-04-02T14:01:16;4.43;;;1.10;;
2874;SDS011;1445;52.600;13.328;2023-04-02T14:03:44;3.13;;;1.20;;
2874;SDS011;1445;52.600;13.328;2023-04-02T14:11:52;1.40;;;0.70;;
2874;SDS011;1445;52.600;13.328;2023-04-02T14:15:18;2.70;;;1.23;;
2874;SDS011;1445;52.600;13.328;2023-04-02T14:41:41;1.77;;;0.80;;
2874;SDS011;1445;52.600;13.328;2023-04-02T14:44:17;2.03;;;0.80;;
2874;SDS011;1445;52.600;13.328;2023-04-02T14:46:46;5.13;;;1.00;;
2874;SDS011;1445;52.600;13.328;2023-04-02T14:54:13;3.45;;;0.85;;
2874;SDS011;1445;52.600;13.328;2023-04-02T14:56:44;2.72;;;0.98;;
2874;SDS011;1445;52.600;13.328;2023-04-02T15:05:15;2.58;;;0.82;;
2874;SDS011;1445;52.600;13.328;2023-04-02T15:07:48;2.25;;;1.17;;
2874;SDS011;1445;52.600;13.328;2023-04-02T15:13:06;2.20;;;0.82;;
2874;SDS011;1445;52.600;13.328;2023-04-02T15:15:42;4.28;;;1.33;;
2874;SDS011;1445;52.600;13.328;2023-04-02T15:20:53;2.47;;;0.82;;
2874;SDS011;1445;52.600;13.328;2023-04-02T15:23:33;4.38;;;1.10;;
2874;SDS011;1445;52.600;13.328;2023-04-02T15:31:30;3.40;;;1.40;;
2874;SDS011;1445;52.600;13.328;2023-04-02T15:36:44;3.53;;;1.13;;
2874;SDS011;1445;52.600;13.328;2023-04-02T15:45:31;2.67;;;0.93;;
2874;SDS011;1445;52.600;13.328;2023-04-02T16:12:52;5.00;;;1.10;;
2874;SDS011;1445;52.600;13.328;2023-04-02T16:15:25;4.22;;;1.52;;
2874;SDS011;1445;52.600;13.328;2023-04-02T16:18:00;3.75;;;1.40;;
2874;SDS011;1445;52.600;13.328;2023-04-02T16:20:35;2.08;;;0.95;;
2874;SDS011;1445;52.600;13.328;2023-04-02T16:23:19;2.67;;;1.35;;
2874;SDS011;1445;52.600;13.328;2023-04-02T16:25:54;3.92;;;1.10;;
2874;SDS011;1445;52.600;13.328;2023-04-02T16:28:30;2.97;;;1.35;;
2874;SDS011;1445;52.600;13.328;2023-04-02T16:31:22;3.90;;;1.52;;
2874;SDS011;1445;52.600;13.328;2023-04-02T16:34:16;3.47;;;1.20;;
2874;SDS011;1445;52.600;13.328;2023-04-02T16:36:59;2.72;;;0.93;;
2874;SDS011;1445;52.600;13.328;2023-04-02T16:45:02;4.05;;;1.17;;
2874;SDS011;1445;52.600;13.328;2023-04-02T16:48:03;3.33;;;1.20;;
2874;SDS011;1445;52.600;13.328;2023-04-02T16:53:49;2.10;;;1.00;;
2874;SDS011;1445;52.600;13.328;2023-04-02T16:56:42;2.30;;;0.98;;
2874;SDS011;1445;52.600;13.328;2023-04-02T17:02:01;5.15;;;1.27;;
2874;SDS011;1445;52.600;13.328;2023-04-02T17:07:26;1.75;;;1.10;;
2874;SDS011;1445;52.600;13.328;2023-04-02T17:13:03;2.75;;;1.02;;
2874;SDS011;1445;52.600;13.328;2023-04-02T17:15:41;2.83;;;0.95;;
2874;SDS011;1445;52.600;13.328;2023-04-02T17:18:17;2.72;;;1.10;;
2874;SDS011;1445;52.600;13.328;2023-04-02T17:20:47;2.45;;;1.02;;
2874;SDS011;1445;52.600;13.328;2023-04-02T17:23:13;3.50;;;1.20;;
2874;SDS011;1445;52.600;13.328;2023-04-02T17:26:00;3.25;;;1.00;;
2874;SDS011;1445;52.600;13.328;2023-04-02T17:28:30;2.42;;;0.88;;
2874;SDS011;1445;52.600;13.328;2023-04-02T17:31:09;3.92;;;1.30;;
2874;SDS011;1445;52.600;13.328;2023-04-02T17:33:39;2.30;;;1.10;;
2874;SDS011;1445;52.600;13.328;2023-04-02T17:41:32;4.38;;;1.55;;
2874;SDS011;1445;52.600;13.328;2023-04-02T17:52:39;3.72;;;1.17;;
2874;SDS011;1445;52.600;13.328;2023-04-02T17:55:20;2.97;;;1.38;;
2874;SDS011;1445;52.600;13.328;2023-04-02T18:05:42;5.18;;;1.77;;
2874;SDS011;1445;52.600;13.328;2023-04-02T18:13:31;3.78;;;1.27;;
2874;SDS011;1445;52.600;13.328;2023-04-02T18:22:04;2.97;;;1.23;;
2874;SDS011;1445;52.600;13.328;2023-04-02T18:27:43;7.05;;;1.45;;
2874;SDS011;1445;52.600;13.328;2023-04-02T18:30:17;3.88;;;1.67;;
2874;SDS011;1445;52.600;13.328;2023-04-02T18:32:57;3.38;;;1.40;;
2874;SDS011;1445;52.600;13.328;2023-04-02T18:35:39;3.00;;;1.30;;
2874;SDS011;1445;52.600;13.328;2023-04-02T18:54:30;3.72;;;1.50;;
2874;SDS011;1445;52.600;13.328;2023-04-02T18:57:00;4.20;;;1.48;;
2874;SDS011;1445;52.600;13.328;2023-04-02T18:59:35;3.97;;;1.38;;
2874;SDS011;1445;52.600;13.328;2023-04-02T19:02:39;4.13;;;1.40;;
2874;SDS011;1445;52.600;13.328;2023-04-02T19:05:43;6.03;;;2.38;;
2874;SDS011;1445;52.600;13.328;2023-04-02T19:11:02;7.80;;;1.60;;
2874;SDS011;1445;52.600;13.328;2023-04-02T19:13:31;7.03;;;1.45;;
2874;SDS011;1445;52.600;13.328;2023-04-02T19:24:34;5.93;;;1.45;;
2874;SDS011;1445;52.600;13.328;2023-04-02T19:42:55;3.90;;;1.35;;
2874;SDS011;1445;52.600;13.328;2023-04-02T19:45:37;6.18;;;1.50;;
2874;SDS011;1445;52.600;13.328;2023-04-02T19:48:08;7.35;;;1.58;;
2874;SDS011;1445;52.600;13.328;2023-04-02T19:50:37;4.55;;;1.40;;
2874;SDS011;1445;52.600;13.328;2023-04-02T19:53:03;5.05;;;1.23;;
2874;SDS011;1445;52.600;13.328;2023-04-02T19:55:28;5.38;;;1.58;;
2874;SDS011;1445;52.600;13.328;2023-04-02T19:57:54;5.95;;;1.92;;
2874;SDS011;1445;52.600;13.328;2023-04-02T20:00:20;5.85;;;1.48;;
2874;SDS011;1445;52.600;13.328;2023-04-02T20:02:45;5.30;;;1.70;;
2874;SDS011;1445;52.600;13.328;2023-04-02T20:05:11;4.95;;;1.50;;
2874;SDS011;1445;52.600;13.328;2023-04-02T20:07:37;5.82;;;1.77;;
2874;SDS011;1445;52.600;13.328;2023-04-02T20:10:03;5.22;;;1.60;;
2874;SDS011;1445;52.600;13.328;2023-04-02T20:12:29;4.18;;;1.30;;
2874;SDS011;1445;52.600;13.328;2023-04-02T20:14:54;4.38;;;1.80;;
2874;SDS011;1445;52.600;13.328;2023-04-02T20:17:20;6.13;;;2.17;;
2874;SDS011;1445;52.600;13.328;2023-04-02T20:19:45;6.22;;;1.35;;
2874;SDS011;1445;52.600;13.328;2023-04-02T20:22:10;6.35;;;1.17;;
2874;SDS011;1445;52.600;13.328;2023-04-02T20:24:36;6.82;;;1.60;;
2874;SDS011;1445;52.600;13.328;2023-04-02T20:27:01;3.42;;;1.30;;
2874;SDS011;1445;52.600;13.328;2023-04-02T20:29:27;4.70;;;1.40;;
2874;SDS011;1445;52.600;13.328;2023-04-02T20:31:54;4.60;;;1.45;;
2874;SDS011;1445;52.600;13.328;2023-04-02T20:34:20;2.10;;;1.17;;
2874;SDS011;1445;52.600;13.328;2023-04-02T20:36:45;4.97;;;1.30;;
2874;SDS011;1445;52.600;13.328;2023-04-02T20:39:11;7.40;;;1.40;;
2874;SDS011;1445;52.600;13.328;2023-04-02T20:41:43;5.40;;;1.50;;
2874;SDS011;1445;52.600;13.328;2023-04-02T20:44:09;7.20;;;1.63;;
2874;SDS011;1445;52.600;13.328;2023-04-02T20:46:35;6.20;;;1.42;;
2874;SDS011;1445;52.600;13.328;2023-04-02T20:49:00;4.55;;;1.42;;
2874;SDS011;1445;52.600;13.328;2023-04-02T20:51:26;6.45;;;1.30;;
2874;SDS011;1445;52.600;13.328;2023-04-02T20:53:51;5.03;;;1.50;;
2874;SDS011;1445;52.600;13.328;2023-04-02T20:56:17;6.07;;;1.45;;
2874;SDS011;1445;52.600;13.328;2023-04-02T20:58:44;10.70;;;1.50;;
2874;SDS011;1445;52.600;13.328;2023-04-02T21:01:17;3.90;;;1.52;;
2874;SDS011;1445;52.600;13.328;2023-04-02T21:03:43;5.38;;;1.50;;
2874;SDS011;1445;52.600;13.328;2023-04-02T21:06:18;4.95;;;1.45;;
2874;SDS011;1445;52.600;13.328;2023-04-02T21:08:45;8.90;;;1.30;;
2874;SDS011;1445;52.600;13.328;2023-04-02T21:11:11;2.95;;;1.30;;
2874;SDS011;1445;52.600;13.328;2023-04-02T21:13:36;4.13;;;1.42;;
2874;SDS011;1445;52.600;13.328;2023-04-02T21:16:03;4.53;;;1.52;;
2874;SDS011;1445;52.600;13.328;2023-04-02T21:18:30;3.80;;;1.42;;
2874;SDS011;1445;52.600;13.328;2023-04-02T21:20:56;5.03;;;1.30;;
2874;SDS011;1445;52.600;13.328;2023-04-02T21:23:23;2.47;;;1.15;;